Weather reports worldwide

Advertisment
Cairngorm, United Kingdom (3065): temperature & dewpoint: 20.03.2019 19:00:00 - 26.03.2019 19:00:00 (GMT)Cairngorm, United Kingdom (3065): wind speed & gusts: 20.03.2019 19:00:00 - 26.03.2019 19:00:00 (GMT)Cairngorm, United Kingdom (3065): wind direction: 20.03.2019 19:00:00 - 26.03.2019 19:00:00 (GMT)
Date & Time tt [°C] td [°C] ff [km/h] ff [kn] fx [km/h] fx [kn] dd
26.03.2019 19:00:00 0,9 0,9 63 34 83 45 W
26.03.2019 18:00:00 1,0 1,0 65 35 83 45 W
26.03.2019 17:00:00 1,0 1,0 65 35 81 44 WNW
26.03.2019 16:00:00 1,0 1,0 57 31 100 54 W
26.03.2019 15:00:00 0,8 0,8 72 39 89 48 W
26.03.2019 14:00:00 0,6 0,6 76 41 94 51 W
26.03.2019 13:00:00 0,4 0,4 78 42 98 53 W
26.03.2019 12:00:00 0,1 0,1 68 37 89 48 W
26.03.2019 11:00:00 0,1 0,1 74 40 96 52 W
26.03.2019 10:00:00 -0,7 -0,7 80 43 102 55 W
26.03.2019 09:00:00 -0,9 -0,9 83 45 96 52 W
26.03.2019 08:00:00 -1,4 -1,4 72 39 98 53 W
26.03.2019 07:00:00 -1,5 -1,5 76 41 94 51 W
26.03.2019 06:00:00 -1,4 -1,4 72 39 94 51 W
26.03.2019 05:00:00 -2,0 -2,0 65 35 93 50 W
26.03.2019 04:00:00 -1,9 -1,9 76 41 89 48 W
26.03.2019 03:00:00 -2,0 -2,0 67 36 91 49 W
26.03.2019 02:00:00 -1,5 -1,5 72 39 89 48 W
26.03.2019 01:00:00 -1,4 -1,4 63 34 80 43 W
26.03.2019 00:00:00 -1,8 -1,8 68 37 85 46 W
25.03.2019 23:00:00 -1,9 -1,9 61 33 80 43 W
25.03.2019 22:00:00 -1,8 -1,8 63 34 78 42 W
25.03.2019 21:00:00 -1,7 -1,7 52 28 70 38 W
25.03.2019 20:00:00 -1,7 -1,7 54 29 65 35 W
25.03.2019 19:00:00 -1,9 -1,9 50 27 65 35 W
25.03.2019 18:00:00 -1,7 -1,7 57 31 81 44 WNW
25.03.2019 17:00:00 -1,6 -1,6 78 42 87 47 WNW
25.03.2019 16:00:00 -1,1 -1,1 68 37 80 43 WNW
25.03.2019 15:00:00 -2,0 -2,0 65 35 74 40 WNW
25.03.2019 14:00:00 -2,3 -2,3 59 32 78 42 WNW
25.03.2019 13:00:00 -1,9 -1,9 63 34 72 39 WNW
25.03.2019 12:00:00 -1,5 -1,5 - - 65 35 -
25.03.2019 11:00:00 -2,9 -2,9 50 27 63 34 WNW
25.03.2019 10:00:00 -2,2 -2,2 54 29 72 39 WNW
25.03.2019 09:00:00 -2,8 -2,8 61 33 106 57 NW
25.03.2019 08:00:00 -2,4 -2,5 - - 113 61 -
25.03.2019 07:00:00 -3,4 -3,4 80 43 98 53 NW
25.03.2019 06:00:00 -2,1 -2,2 72 39 102 55 NW
25.03.2019 05:00:00 -3,2 -3,2 74 40 94 51 NW
25.03.2019 04:00:00 -2,5 -2,5 74 40 119 64 NW
25.03.2019 03:00:00 -3,1 -3,1 80 43 117 63 NW
25.03.2019 02:00:00 -2,3 -2,4 81 44 115 62 NW
25.03.2019 01:00:00 -1,0 -1,0 - - 128 69 -
25.03.2019 00:00:00 -1,1 -1,1 93 50 131 71 WNW
24.03.2019 23:00:00 -1,3 -1,3 91 49 111 60 WNW
24.03.2019 22:00:00 -3,3 -3,4 - - 115 62 -
24.03.2019 21:00:00 -4,0 -4,1 96 52 131 71 WNW
24.03.2019 20:00:00 -4,2 -4,4 109 59 135 73 WNW
24.03.2019 19:00:00 -4,1 -4,2 - - - - -
24.03.2019 18:00:00 -3,8 -3,9 - - 115 62 -
24.03.2019 17:00:00 -3,9 -4,0 - - - - -
24.03.2019 16:00:00 -4,1 -4,2 - - - - -
24.03.2019 15:00:00 -3,7 -3,7 - - 91 49 -
24.03.2019 14:00:00 -1,9 -1,9 - - 157 85 -
24.03.2019 13:00:00 -1,9 -1,9 74 40 126 68 W
24.03.2019 12:00:00 -1,8 -1,8 89 48 133 72 W
24.03.2019 11:00:00 -2,6 -2,6 91 49 131 71 W
24.03.2019 10:00:00 -2,7 -2,7 89 48 128 69 W
24.03.2019 09:00:00 -2,3 -2,3 85 46 126 68 W
24.03.2019 08:00:00 -2,8 -2,8 85 46 124 67 WSW
24.03.2019 07:00:00 -3,2 -3,3 93 50 130 70 WSW
24.03.2019 06:00:00 -3,6 -3,7 89 48 133 72 W
24.03.2019 05:00:00 -4,1 -4,3 87 47 117 63 W
24.03.2019 04:00:00 -3,7 -3,7 81 44 113 61 W
24.03.2019 03:00:00 -3,7 -3,7 68 37 109 59 W
24.03.2019 02:00:00 -4,0 -4,2 70 38 107 58 WSW
24.03.2019 01:00:00 -4,1 -4,4 59 32 100 54 WSW
24.03.2019 00:00:00 -3,9 -4,3 54 29 96 52 WSW
23.03.2019 23:00:00 -3,9 -4,0 54 29 107 58 WSW
23.03.2019 22:00:00 -4,0 -4,4 70 38 102 55 W
23.03.2019 21:00:00 -3,7 -3,8 76 41 107 58 WSW
23.03.2019 20:00:00 -3,8 -4,3 57 31 85 46 WSW
23.03.2019 19:00:00 -3,7 -3,7 52 28 80 43 WSW
23.03.2019 18:00:00 -3,6 -3,8 55 30 78 42 WSW
23.03.2019 17:00:00 -3,4 -4,1 57 31 78 42 W
23.03.2019 16:00:00 -2,8 -3,0 65 35 89 48 W
23.03.2019 15:00:00 -2,9 -3,6 54 29 85 46 W
23.03.2019 14:00:00 -2,6 -3,6 65 35 94 51 W
23.03.2019 13:00:00 -3,6 -4,5 76 41 104 56 W
23.03.2019 12:00:00 -3,7 -4,2 83 45 119 64 WNW
23.03.2019 11:00:00 -3,8 -3,9 91 49 117 63 W
23.03.2019 10:00:00 -4,6 -4,7 98 53 117 63 W
23.03.2019 09:00:00 -4,8 -5,0 87 47 122 66 W
23.03.2019 08:00:00 -5,0 -5,2 87 47 122 66 W
23.03.2019 07:00:00 -4,7 -4,9 98 53 131 71 W
23.03.2019 06:00:00 -5,0 -5,2 106 57 137 74 W
23.03.2019 05:00:00 -5,3 -5,6 100 54 133 72 W
23.03.2019 04:00:00 -5,5 -5,8 93 50 135 73 W
23.03.2019 03:00:00 -5,4 -5,6 96 52 133 72 W
23.03.2019 02:00:00 -5,8 -6,1 98 53 137 74 W
23.03.2019 01:00:00 -5,4 -5,7 83 45 133 72 W
23.03.2019 00:00:00 -4,7 -4,9 76 41 128 69 W
22.03.2019 23:00:00 -4,9 -5,3 81 44 128 69 W
22.03.2019 22:00:00 -5,0 -5,3 102 55 141 76 W
22.03.2019 21:00:00 -4,5 -4,8 91 49 154 83 W
22.03.2019 20:00:00 -3,8 -3,9 102 55 143 77 W
22.03.2019 19:00:00 -3,3 -3,5 78 42 122 66 W
22.03.2019 18:00:00 -3,1 -3,5 93 50 128 69 WSW
22.03.2019 17:00:00 -2,1 -2,1 93 50 135 73 W
22.03.2019 16:00:00 -1,5 -1,5 81 44 120 65 WSW
22.03.2019 15:00:00 0,7 0,7 76 41 119 64 WSW
22.03.2019 14:00:00 0,3 0,3 91 49 124 67 WSW
22.03.2019 13:00:00 1,2 1,2 89 48 124 67 WSW
22.03.2019 12:00:00 1,7 1,7 98 53 131 71 SW
22.03.2019 11:00:00 1,7 1,7 93 50 139 75 SSW
22.03.2019 10:00:00 1,8 1,8 98 53 139 75 SSW
22.03.2019 09:00:00 1,6 1,6 109 59 139 75 SSW
22.03.2019 08:00:00 1,3 1,3 104 56 135 73 SSW
22.03.2019 07:00:00 1,2 1,2 107 58 139 75 SSW
22.03.2019 06:00:00 1,2 1,2 111 60 135 73 SSW
22.03.2019 05:00:00 1,3 1,3 89 48 119 64 SSW
22.03.2019 04:00:00 1,3 1,3 72 39 102 55 S
22.03.2019 03:00:00 1,3 1,3 76 41 117 63 S
22.03.2019 02:00:00 1,4 1,4 93 50 113 61 S
22.03.2019 01:00:00 1,6 1,6 74 40 106 57 S
22.03.2019 00:00:00 2,2 2,2 72 39 93 50 S
21.03.2019 23:00:00 3,1 3,1 70 38 89 48 S
21.03.2019 22:00:00 3,3 3,3 63 34 87 47 S
21.03.2019 21:00:00 3,3 3,3 65 35 76 41 S
21.03.2019 20:00:00 3,1 3,1 57 31 68 37 S
21.03.2019 19:00:00 2,3 2,3 42 23 57 31 S
21.03.2019 18:00:00 2,2 2,2 41 22 54 29 SSW
21.03.2019 17:00:00 2,3 2,2 26 14 - - SSW
21.03.2019 16:00:00 3,6 3,6 13 7 - - S
21.03.2019 15:00:00 3,0 3,0 13 7 - - SSW
21.03.2019 14:00:00 3,7 3,6 21 11 - - SSW
21.03.2019 13:00:00 3,9 3,9 21 11 - - WSW
21.03.2019 12:00:00 2,7 2,7 24 13 63 34 W
21.03.2019 11:00:00 2,1 2,1 52 28 78 42 W
21.03.2019 10:00:00 2,3 2,3 63 34 85 46 W
21.03.2019 09:00:00 2,8 2,8 68 37 102 55 WNW
21.03.2019 08:00:00 3,2 3,2 76 41 113 61 W
21.03.2019 07:00:00 3,3 3,3 78 42 126 68 W
21.03.2019 06:00:00 3,6 3,6 93 50 144 78 W
21.03.2019 05:00:00 3,8 3,7 83 45 141 76 W
21.03.2019 04:00:00 3,8 3,8 89 48 135 73 WSW
21.03.2019 03:00:00 3,9 3,9 96 52 144 78 WSW
21.03.2019 02:00:00 4,1 4,1 89 48 133 72 WSW
21.03.2019 01:00:00 4,3 4,3 80 43 124 67 WSW
21.03.2019 00:00:00 4,3 4,2 89 48 135 73 WSW
20.03.2019 23:00:00 4,4 4,4 107 58 135 73 WSW
20.03.2019 22:00:00 3,7 3,7 100 54 133 72 WSW
20.03.2019 21:00:00 3,8 3,8 113 61 150 81 WSW
20.03.2019 20:00:00 4,4 4,4 106 57 156 84 WSW
20.03.2019 19:00:00 4,8 4,8 120 65 146 79 WSW

tt = temperature
td = dewpoint
ff = wind speed
fx = gusts
dd = wind direction

Next stations